Time;durP1;ratioP1;P1;durP2;ratioP2;P2;SDS_P1;SDS_P2;PMS_P1;PMS_P2;Temp;Humidity;BMP_temperature;BMP_pressure;BME280_temperature;BME280_humidity;BME280_pressure;Samples;Min_cycle;Max_cycle;Signal;HPM_P1;HPM_P2
2021/10/05 00:00:21;;;;;;;1.65;0.68;;;;;18.50;101003.00;;;;5056582;28;20196;-80
2021/10/05 00:02:49;;;;;;;1.70;0.60;;;;;18.50;100993.00;;;;5029440;28;20204;-80
2021/10/05 00:05:16;;;;;;;1.85;0.70;;;;;18.50;100998.00;;;;5042412;28;20223;-79
2021/10/05 00:07:43;;;;;;;1.23;0.70;;;;;18.50;100995.00;;;;5032296;28;20204;-79
2021/10/05 00:10:12;;;;;;;2.00;0.88;;;;;18.50;100994.00;;;;5038239;28;20203;-79
2021/10/05 00:12:40;;;;;;;1.17;0.68;;;;;18.50;100992.00;;;;5030527;28;20195;-79
2021/10/05 00:15:10;;;;;;;1.48;0.90;;;;;18.50;101000.00;;;;5038064;28;20656;-79
2021/10/05 00:17:37;;;;;;;1.02;0.73;;;;;18.50;101001.00;;;;5033302;28;20187;-79
2021/10/05 00:20:06;;;;;;;2.10;0.55;;;;;18.40;101007.00;;;;5034872;28;20259;-79
2021/10/05 00:22:34;;;;;;;1.95;0.82;;;;;18.40;100998.00;;;;5032696;28;20192;-79
2021/10/05 00:25:01;;;;;;;1.85;0.90;;;;;18.40;100994.00;;;;5042907;28;20192;-79
2021/10/05 00:27:28;;;;;;;1.92;0.77;;;;;18.40;100997.00;;;;5040305;28;20203;-79
2021/10/05 00:29:57;;;;;;;1.85;0.63;;;;;18.40;100991.00;;;;5035217;28;20223;-79
2021/10/05 00:32:25;;;;;;;3.85;1.08;;;;;18.40;100997.00;;;;5029980;28;20199;-79
2021/10/05 00:34:52;;;;;;;1.60;0.77;;;;;18.40;100984.00;;;;5038132;28;20198;-79
2021/10/05 00:37:19;;;;;;;1.60;0.73;;;;;18.40;100982.00;;;;5039330;28;20207;-79
2021/10/05 00:39:47;;;;;;;1.27;0.82;;;;;18.40;100975.00;;;;5030034;28;20196;-79
2021/10/05 00:42:14;;;;;;;2.92;0.80;;;;;18.40;100979.00;;;;5030877;28;20200;-78
2021/10/05 00:44:42;;;;;;;1.83;0.60;;;;;18.40;100976.00;;;;5028925;28;20197;-78
2021/10/05 00:47:13;;;;;;;0.60;0.50;;;;;18.40;100968.00;;;;5028490;28;20220;-79
2021/10/05 00:49:42;;;;;;;1.05;0.55;;;;;18.40;100976.00;;;;5038315;28;20220;-79
2021/10/05 00:52:12;;;;;;;1.92;0.88;;;;;18.30;100964.00;;;;5033208;28;20199;-79
2021/10/05 00:54:41;;;;;;;0.70;0.52;;;;;18.30;100957.00;;;;5043063;28;20215;-79
2021/10/05 00:57:10;;;;;;;1.40;0.80;;;;;18.30;100954.00;;;;5038742;28;20736;-79
2021/10/05 00:59:37;;;;;;;1.05;0.60;;;;;18.30;100956.00;;;;5029117;28;20204;-79
2021/10/05 01:02:09;;;;;;;3.85;0.73;;;;;18.30;100947.00;;;;5029851;28;20266;-79
2021/10/05 01:04:37;;;;;;;0.93;0.65;;;;;18.30;100944.00;;;;5033885;28;20200;-79
2021/10/05 01:07:08;;;;;;;2.38;0.93;;;;;18.30;100937.00;;;;5034333;28;20517;-78
2021/10/05 01:09:36;;;;;;;1.17;0.65;;;;;18.30;100931.00;;;;5040071;28;20226;-79
2021/10/05 01:12:04;;;;;;;1.40;0.50;;;;;18.30;100915.00;;;;5041388;28;20188;-79
2021/10/05 01:14:32;;;;;;;1.52;0.68;;;;;18.30;100914.00;;;;5032873;28;20229;-78
2021/10/05 01:17:01;;;;;;;2.10;0.80;;;;;18.30;100905.00;;;;5038444;28;20196;-79
2021/10/05 01:19:28;;;;;;;1.33;0.80;;;;;18.30;100912.00;;;;5031129;28;20210;-79
2021/10/05 01:21:57;;;;;;;2.25;0.70;;;;;18.20;100910.00;;;;5031434;28;20669;-79
2021/10/05 01:24:25;;;;;;;0.57;0.40;;;;;18.20;100912.00;;;;5048106;28;20199;-80
2021/10/05 01:26:54;;;;;;;1.63;0.68;;;;;18.20;100907.00;;;;5037322;28;20211;-79
2021/10/05 01:29:24;;;;;;;1.50;0.82;;;;;18.20;100904.00;;;;5033005;28;20223;-79
2021/10/05 01:31:54;;;;;;;1.08;0.60;;;;;18.20;100900.00;;;;5046872;28;20607;-79
2021/10/05 01:34:22;;;;;;;1.50;0.68;;;;;18.20;100896.00;;;;5028153;28;20212;-79
2021/10/05 01:36:51;;;;;;;1.00;0.40;;;;;18.20;100908.00;;;;5033103;28;20204;-79
2021/10/05 01:39:25;;;;;;;1.30;0.80;;;;;18.10;100906.00;;;;5031563;28;20220;-79
2021/10/05 01:41:53;;;;;;;1.42;0.63;;;;;18.20;100901.00;;;;5031530;28;20197;-79
2021/10/05 01:44:20;;;;;;;3.05;0.80;;;;;18.20;100901.00;;;;5031854;28;21012;-79
2021/10/05 01:46:49;;;;;;;2.03;0.70;;;;;18.10;100886.00;;;;5031688;28;20228;-78
2021/10/05 01:49:16;;;;;;;1.00;0.80;;;;;18.10;100893.00;;;;5032558;28;20224;-79
2021/10/05 01:51:44;;;;;;;2.00;0.70;;;;;18.10;100892.00;;;;5034550;28;20204;-78
2021/10/05 01:54:12;;;;;;;1.35;0.52;;;;;18.00;100879.00;;;;5036611;28;20200;-79
2021/10/05 01:56:41;;;;;;;1.42;0.60;;;;;18.00;100880.00;;;;5033442;28;20585;-79
2021/10/05 01:59:08;;;;;;;0.57;0.57;;;;;18.00;100877.00;;;;5041525;28;20575;-78
2021/10/05 02:01:35;;;;;;;1.35;0.63;;;;;18.00;100880.00;;;;5033878;28;20201;-79
2021/10/05 02:04:03;;;;;;;0.85;0.55;;;;;18.00;100876.00;;;;5031662;28;20196;-79
2021/10/05 02:06:30;;;;;;;1.98;0.70;;;;;18.00;100869.00;;;;5048442;28;20200;-79
2021/10/05 02:08:57;;;;;;;1.25;0.80;;;;;17.90;100859.00;;;;5049252;28;20215;-79
2021/10/05 02:11:25;;;;;;;1.27;0.63;;;;;17.90;100865.00;;;;5035102;28;20212;-79
2021/10/05 02:13:53;;;;;;;1.88;0.73;;;;;17.90;100858.00;;;;5048309;28;20203;-79
2021/10/05 02:16:21;;;;;;;1.35;0.77;;;;;17.90;100839.00;;;;5031164;28;20192;-80
2021/10/05 02:18:48;;;;;;;0.88;0.65;;;;;17.90;100844.00;;;;5046787;28;20203;-79
2021/10/05 02:21:17;;;;;;;0.85;0.43;;;;;17.90;100839.00;;;;5039875;28;20208;-79
2021/10/05 02:26:31;;;;;;;1.05;0.82;;;;;17.80;100843.00;;;;5034157;28;20341;-79
2021/10/05 02:29:00;;;;;;;0.70;0.55;;;;;17.80;100831.00;;;;5033079;28;20219;-79
2021/10/05 02:31:27;;;;;;;0.73;0.40;;;;;17.80;100824.00;;;;5040079;28;20203;-79
2021/10/05 02:33:54;;;;;;;1.95;0.88;;;;;17.80;100821.00;;;;5042446;28;20195;-79
2021/10/05 02:36:22;;;;;;;1.15;0.63;;;;;17.80;100817.00;;;;5031739;28;20650;-79
2021/10/05 02:38:49;;;;;;;0.90;0.60;;;;;17.80;100817.00;;;;5044898;28;20281;-80
2021/10/05 02:41:16;;;;;;;1.50;0.60;;;;;17.80;100812.00;;;;5043735;28;20203;-79
2021/10/05 02:43:44;;;;;;;2.15;0.55;;;;;17.80;100807.00;;;;5048497;28;20204;-79
2021/10/05 02:46:12;;;;;;;0.77;0.30;;;;;17.80;100806.00;;;;5030913;28;20199;-79
2021/10/05 02:48:39;;;;;;;1.25;0.70;;;;;17.80;100808.00;;;;5044098;28;20220;-79
2021/10/05 02:51:07;;;;;;;0.75;0.40;;;;;17.80;100804.00;;;;5040235;28;20199;-79
2021/10/05 02:53:34;;;;;;;0.77;0.57;;;;;17.80;100791.00;;;;5034378;28;20200;-79
2021/10/05 02:56:01;;;;;;;0.60;0.40;;;;;17.80;100791.00;;;;5040163;28;20218;-80
2021/10/05 02:58:28;;;;;;;1.90;0.65;;;;;17.90;100789.00;;;;5030492;28;20199;-79
2021/10/05 03:00:56;;;;;;;1.20;0.50;;;;;17.80;100780.00;;;;5042952;28;20681;-79
2021/10/05 03:03:24;;;;;;;1.10;0.60;;;;;17.80;100765.00;;;;5030705;28;20238;-79
2021/10/05 03:05:51;;;;;;;0.73;0.50;;;;;17.90;100753.00;;;;5035891;28;20210;-79
2021/10/05 03:08:18;;;;;;;4.75;0.80;;;;;17.90;100752.00;;;;5045015;28;20195;-79
2021/10/05 03:10:46;;;;;;;1.20;0.52;;;;;17.90;100742.00;;;;5030044;28;20235;-79
2021/10/05 03:13:13;;;;;;;0.93;0.55;;;;;17.90;100740.00;;;;5046478;28;20210;-79
2021/10/05 03:15:40;;;;;;;1.98;0.98;;;;;17.90;100743.00;;;;5033822;28;20200;-79
2021/10/05 03:18:07;;;;;;;0.50;0.50;;;;;17.90;100736.00;;;;5033387;28;20196;-79
2021/10/05 03:20:36;;;;;;;2.17;0.57;;;;;17.90;100737.00;;;;5036631;28;20211;-79
2021/10/05 03:23:03;;;;;;;1.20;0.50;;;;;17.90;100730.00;;;;5030263;28;20220;-79
2021/10/05 03:25:31;;;;;;;0.68;0.60;;;;;18.00;100729.00;;;;5030837;28;20208;-79
2021/10/05 03:27:58;;;;;;;1.13;0.55;;;;;18.00;100726.00;;;;5034695;28;20204;-79
2021/10/05 03:30:25;;;;;;;2.05;0.55;;;;;18.00;100722.00;;;;5036159;28;20223;-80
2021/10/05 03:32:53;;;;;;;1.52;0.63;;;;;18.00;100727.00;;;;5040384;28;20284;-80
2021/10/05 03:35:20;;;;;;;1.50;0.47;;;;;18.00;100712.00;;;;5033094;28;20654;-81
2021/10/05 03:37:49;;;;;;;1.08;0.45;;;;;18.00;100716.00;;;;5038534;28;20322;-79
2021/10/05 03:40:16;;;;;;;1.27;0.60;;;;;18.00;100713.00;;;;5029334;28;20201;-79
2021/10/05 03:42:43;;;;;;;0.73;0.40;;;;;18.00;100705.00;;;;5032428;28;20192;-81
2021/10/05 03:45:11;;;;;;;0.50;0.43;;;;;18.00;100695.00;;;;5047367;28;20192;-80
2021/10/05 03:47:38;;;;;;;1.83;0.60;;;;;18.00;100692.00;;;;5037395;28;20262;-80
2021/10/05 03:50:06;;;;;;;1.00;0.57;;;;;18.00;100692.00;;;;5034357;28;20223;-80
2021/10/05 03:52:34;;;;;;;0.50;0.30;;;;;18.00;100684.00;;;;5034311;28;20208;-81
2021/10/05 03:55:02;;;;;;;1.17;0.70;;;;;18.00;100688.00;;;;5047255;28;20187;-79
2021/10/05 03:57:29;;;;;;;0.52;0.40;;;;;18.00;100680.00;;;;5033058;28;20201;-79
2021/10/05 03:59:57;;;;;;;0.63;0.43;;;;;18.00;100666.00;;;;5029147;28;20211;-79
2021/10/05 04:02:24;;;;;;;0.47;0.40;;;;;18.00;100667.00;;;;5035963;28;20203;-80
2021/10/05 04:04:51;;;;;;;1.95;0.90;;;;;18.00;100664.00;;;;5027209;28;20627;-79
2021/10/05 04:07:19;;;;;;;1.45;0.60;;;;;18.00;100662.00;;;;5033465;28;20193;-80
2021/10/05 04:09:46;;;;;;;1.42;0.50;;;;;18.00;100666.00;;;;5035696;28;20967;-79
2021/10/05 04:12:15;;;;;;;1.50;0.68;;;;;18.00;100656.00;;;;5028795;28;20249;-79
2021/10/05 04:14:44;;;;;;;0.85;0.50;;;;;18.10;100661.00;;;;5046601;28;20218;-79
2021/10/05 04:17:11;;;;;;;0.50;0.40;;;;;18.10;100657.00;;;;5030846;28;20207;-79
2021/10/05 04:19:38;;;;;;;0.70;0.50;;;;;18.10;100651.00;;;;5029321;28;20197;-79
2021/10/05 04:22:06;;;;;;;1.05;0.70;;;;;18.10;100652.00;;;;5029819;28;20196;-79
2021/10/05 04:24:33;;;;;;;0.93;0.38;;;;;18.10;100635.00;;;;5037127;28;20196;-79
2021/10/05 04:27:00;;;;;;;1.10;0.60;;;;;18.10;100637.00;;;;5035621;28;20709;-79
2021/10/05 04:29:29;;;;;;;0.80;0.47;;;;;18.10;100645.00;;;;5046043;28;20216;-79
2021/10/05 04:31:56;;;;;;;0.80;0.52;;;;;18.10;100635.00;;;;5034779;28;20196;-80
2021/10/05 04:34:23;;;;;;;0.68;0.38;;;;;18.10;100623.00;;;;5036338;28;20199;-79
2021/10/05 04:36:51;;;;;;;0.63;0.35;;;;;18.10;100627.00;;;;5049300;28;20649;-80
2021/10/05 04:39:18;;;;;;;2.22;0.60;;;;;18.10;100620.00;;;;5035021;28;20239;-79
2021/10/05 04:41:45;;;;;;;0.82;0.40;;;;;18.10;100626.00;;;;5033211;28;20745;-79
2021/10/05 04:44:12;;;;;;;0.70;0.40;;;;;18.10;100628.00;;;;5033706;28;20204;-79
2021/10/05 04:46:41;;;;;;;1.35;0.50;;;;;18.10;100627.00;;;;5044055;28;20220;-80
2021/10/05 04:49:08;;;;;;;1.30;0.60;;;;;18.10;100617.00;;;;5036966;28;20195;-79
2021/10/05 04:51:35;;;;;;;1.05;0.50;;;;;18.10;100618.00;;;;5048190;28;20656;-79
2021/10/05 04:54:02;;;;;;;0.50;0.40;;;;;18.10;100610.00;;;;5048183;28;20203;-79
2021/10/05 04:56:30;;;;;;;1.80;0.68;;;;;18.10;100609.00;;;;5044710;28;20227;-80
2021/10/05 04:58:57;;;;;;;1.52;0.90;;;;;18.10;100608.00;;;;5029883;28;20196;-80
2021/10/05 05:01:24;;;;;;;1.83;0.60;;;;;18.10;100605.00;;;;5040455;28;20215;-79
2021/10/05 05:03:53;;;;;;;4.50;0.77;;;;;18.10;100604.00;;;;5032875;28;20200;-79
2021/10/05 05:06:20;;;;;;;1.88;0.80;;;;;18.10;100601.00;;;;5044153;28;20199;-79
2021/10/05 05:08:47;;;;;;;1.95;0.68;;;;;18.10;100598.00;;;;5048349;28;20199;-78
2021/10/05 05:11:14;;;;;;;1.48;1.10;;;;;18.00;100589.00;;;;5050497;28;20222;-80
2021/10/05 05:13:42;;;;;;;0.90;0.52;;;;;18.00;100579.00;;;;5051930;28;20677;-80
2021/10/05 05:16:09;;;;;;;1.70;0.70;;;;;18.00;100580.00;;;;5045473;28;20211;-79
2021/10/05 05:18:36;;;;;;;1.23;0.57;;;;;18.00;100588.00;;;;5044604;28;20196;-79
2021/10/05 05:21:05;;;;;;;2.63;1.08;;;;;18.00;100586.00;;;;5038071;28;20253;-79
2021/10/05 05:23:32;;;;;;;1.15;0.60;;;;;18.00;100579.00;;;;5032640;28;20203;-79
2021/10/05 05:25:59;;;;;;;1.85;0.70;;;;;17.90;100576.00;;;;5039264;28;20196;-78
2021/10/05 05:28:26;;;;;;;0.60;0.60;;;;;17.90;100566.00;;;;5036717;28;20234;-78
2021/10/05 05:30:54;;;;;;;0.68;0.68;;;;;17.90;100563.00;;;;5039447;28;20227;-78
2021/10/05 05:33:21;;;;;;;2.03;0.95;;;;;17.90;100564.00;;;;5045455;28;20208;-78
2021/10/05 05:35:49;;;;;;;1.45;1.00;;;;;17.90;100559.00;;;;5035395;28;20211;-78
2021/10/05 05:38:18;;;;;;;1.10;0.80;;;;;17.80;100560.00;;;;5029999;28;20701;-80
2021/10/05 05:40:45;;;;;;;1.42;0.93;;;;;17.80;100554.00;;;;5049845;28;20254;-79
2021/10/05 05:43:13;;;;;;;1.05;0.65;;;;;17.80;100553.00;;;;5051790;28;20714;-79
2021/10/05 05:45:40;;;;;;;1.00;0.70;;;;;17.80;100544.00;;;;5033197;28;20204;-78
2021/10/05 05:48:07;;;;;;;1.40;0.80;;;;;17.80;100549.00;;;;5041348;28;20591;-79
2021/10/05 05:50:34;;;;;;;1.25;0.88;;;;;17.80;100548.00;;;;5047553;28;20227;-79
2021/10/05 05:53:02;;;;;;;1.63;0.70;;;;;17.80;100544.00;;;;5032522;28;20203;-78
2021/10/05 05:55:30;;;;;;;0.68;0.60;;;;;17.80;100541.00;;;;5032088;28;20200;-79
2021/10/05 05:57:58;;;;;;;1.25;0.93;;;;;17.80;100536.00;;;;5031137;28;20246;-76
2021/10/05 06:00:25;;;;;;;3.60;0.90;;;;;17.80;100532.00;;;;5033255;28;20679;-78
2021/10/05 06:02:52;;;;;;;0.70;0.60;;;;;17.80;100527.00;;;;5046771;28;20223;-78
2021/10/05 06:05:20;;;;;;;8.43;1.27;;;;;17.80;100521.00;;;;5031505;28;20212;-78
2021/10/05 06:07:47;;;;;;;3.17;0.90;;;;;17.80;100520.00;;;;5035594;28;21013;-78
2021/10/05 06:10:14;;;;;;;1.50;0.80;;;;;17.80;100526.00;;;;5050928;28;20223;-78
2021/10/05 06:12:43;;;;;;;0.93;0.73;;;;;17.80;100521.00;;;;5051053;28;20204;-78
2021/10/05 06:15:12;;;;;;;1.30;0.50;;;;;17.80;100518.00;;;;5058155;28;20207;-78
2021/10/05 06:17:41;;;;;;;1.20;0.80;;;;;17.80;100518.00;;;;5042330;28;20203;-78
2021/10/05 06:20:10;;;;;;;1.85;0.80;;;;;17.70;100520.00;;;;5049895;28;20196;-77
2021/10/05 06:22:38;;;;;;;0.80;0.70;;;;;17.80;100526.00;;;;5050284;28;20203;-77
2021/10/05 06:25:08;;;;;;;1.10;0.88;;;;;17.80;100528.00;;;;5043483;28;20757;-77
2021/10/05 06:27:35;;;;;;;2.35;0.90;;;;;17.80;100523.00;;;;5050543;28;20199;-77
2021/10/05 06:30:05;;;;;;;2.90;1.10;;;;;17.80;100523.00;;;;5050263;28;20435;-77
2021/10/05 06:32:33;;;;;;;0.95;0.85;;;;;17.80;100526.00;;;;5036103;28;20203;-77
2021/10/05 06:35:00;;;;;;;1.88;0.82;;;;;17.80;100525.00;;;;5030778;28;20196;-77
2021/10/05 06:37:27;;;;;;;1.02;0.70;;;;;17.80;100520.00;;;;5031085;28;20203;-76
2021/10/05 06:39:54;;;;;;;4.03;1.33;;;;;17.80;100515.00;;;;5030325;28;20205;-77
2021/10/05 06:42:22;;;;;;;2.40;0.70;;;;;17.80;100518.00;;;;5039790;28;20219;-77
2021/10/05 06:44:49;;;;;;;1.42;0.95;;;;;17.80;100510.00;;;;5048799;28;20203;-77
2021/10/05 06:47:17;;;;;;;1.70;0.95;;;;;17.80;100507.00;;;;5044998;28;20220;-78
2021/10/05 06:49:45;;;;;;;1.20;0.80;;;;;17.80;100505.00;;;;5041260;28;20196;-77
2021/10/05 06:52:12;;;;;;;1.00;0.65;;;;;17.90;100501.00;;;;5049547;28;20199;-77
2021/10/05 06:54:39;;;;;;;1.55;0.88;;;;;17.90;100499.00;;;;5050492;28;20204;-77
2021/10/05 06:57:07;;;;;;;1.02;0.80;;;;;17.90;100498.00;;;;5037449;28;20196;-77
2021/10/05 06:59:34;;;;;;;1.33;0.82;;;;;18.00;100497.00;;;;5043549;28;20210;-77
2021/10/05 07:02:01;;;;;;;1.00;0.70;;;;;18.00;100496.00;;;;5058815;28;20196;-78
2021/10/05 07:04:30;;;;;;;1.00;0.77;;;;;18.00;100484.00;;;;5049821;28;20187;-77
2021/10/05 07:06:57;;;;;;;1.73;0.88;;;;;18.10;100484.00;;;;5049253;28;20199;-77
2021/10/05 07:09:24;;;;;;;1.20;0.98;;;;;18.10;100479.00;;;;5049835;28;20206;-77
2021/10/05 07:11:51;;;;;;;1.98;0.80;;;;;18.20;100484.00;;;;5049520;28;20258;-77
2021/10/05 07:14:18;;;;;;;0.93;0.85;;;;;18.20;100475.00;;;;5049855;28;20192;-77
2021/10/05 07:16:46;;;;;;;4.20;1.00;;;;;18.20;100475.00;;;;5036207;28;20724;-77
2021/10/05 07:19:13;;;;;;;1.13;0.90;;;;;18.30;100476.00;;;;5029179;28;20204;-77
2021/10/05 07:21:41;;;;;;;1.27;0.75;;;;;18.30;100464.00;;;;5029573;28;20212;-77
2021/10/05 07:24:09;;;;;;;1.40;0.80;;;;;18.30;100453.00;;;;5029489;28;20670;-77
2021/10/05 07:26:36;;;;;;;1.25;1.02;;;;;18.40;100460.00;;;;5029643;28;20685;-76
2021/10/05 07:29:03;;;;;;;1.30;0.98;;;;;18.40;100452.00;;;;5028965;28;20204;-77
2021/10/05 07:31:34;;;;;;;1.35;0.82;;;;;18.40;100457.00;;;;5029255;28;20220;-77
2021/10/05 07:34:01;;;;;;;1.27;0.88;;;;;18.50;100450.00;;;;5028225;28;20286;-78
2021/10/05 07:36:29;;;;;;;1.83;1.10;;;;;18.50;100442.00;;;;5029551;28;20200;-77
2021/10/05 07:38:57;;;;;;;2.03;1.08;;;;;18.50;100444.00;;;;5028784;28;20236;-77
2021/10/05 07:41:24;;;;;;;1.02;0.80;;;;;18.60;100433.00;;;;5029230;28;20204;-77
2021/10/05 07:43:52;;;;;;;1.25;0.90;;;;;18.60;100442.00;;;;5028082;28;20211;-77
2021/10/05 07:46:20;;;;;;;1.08;0.98;;;;;18.70;100434.00;;;;5029461;28;20203;-77
2021/10/05 07:48:48;;;;;;;1.20;0.77;;;;;18.70;100427.00;;;;5029621;28;20575;-77
2021/10/05 07:51:15;;;;;;;1.38;0.88;;;;;18.80;100434.00;;;;5029209;28;20228;-77
2021/10/05 07:53:42;;;;;;;2.17;0.85;;;;;18.80;100434.00;;;;5029042;28;20192;-77
2021/10/05 07:56:11;;;;;;;1.75;1.02;;;;;18.80;100421.00;;;;5029847;28;20203;-77
2021/10/05 07:58:38;;;;;;;2.55;1.00;;;;;18.90;100423.00;;;;5029438;28;20200;-77
2021/10/05 08:01:05;;;;;;;2.47;1.27;;;;;18.90;100410.00;;;;5028683;28;20203;-78
2021/10/05 08:03:33;;;;;;;1.23;1.00;;;;;19.00;100407.00;;;;5028186;28;20207;-77
2021/10/05 08:06:00;;;;;;;2.65;0.80;;;;;19.00;100410.00;;;;5029238;28;20200;-77
2021/10/05 08:08:28;;;;;;;2.38;1.25;;;;;19.00;100396.00;;;;5029488;28;20209;-77
2021/10/05 08:10:55;;;;;;;1.10;0.85;;;;;19.10;100390.00;;;;5044021;28;20712;-76
2021/10/05 08:13:24;;;;;;;1.23;0.98;;;;;19.20;100392.00;;;;5063290;28;20199;-78
2021/10/05 08:15:52;;;;;;;1.23;0.60;;;;;19.20;100392.00;;;;5042461;28;20196;-77
2021/10/05 08:18:19;;;;;;;1.00;0.90;;;;;19.30;100382.00;;;;5029030;28;20196;-78
2021/10/05 08:20:47;;;;;;;2.13;1.00;;;;;19.40;100382.00;;;;5045060;28;20203;-77
2021/10/05 08:23:15;;;;;;;2.03;0.98;;;;;19.40;100388.00;;;;5048543;28;20203;-77
2021/10/05 08:25:43;;;;;;;0.95;0.80;;;;;19.40;100381.00;;;;5028603;28;20670;-77
2021/10/05 08:28:11;;;;;;;3.30;1.15;;;;;19.50;100368.00;;;;5028659;28;20192;-78
2021/10/05 08:30:40;;;;;;;1.63;0.88;;;;;19.60;100365.00;;;;5029125;28;20216;-77
2021/10/05 08:33:08;;;;;;;2.17;0.90;;;;;19.60;100358.00;;;;5028365;28;20211;-78
2021/10/05 08:35:36;;;;;;;1.90;0.63;;;;;19.70;100365.00;;;;5028958;28;20196;-77
2021/10/05 08:38:04;;;;;;;2.08;0.57;;;;;19.80;100359.00;;;;5028024;28;20240;-77
2021/10/05 08:40:42;;;;;;;3.65;1.10;;;;;19.80;100352.00;;;;5028404;28;20208;-77
2021/10/05 08:43:09;;;;;;;3.10;0.73;;;;;19.90;100354.00;;;;5028152;28;20215;-77
2021/10/05 08:45:37;;;;;;;1.30;0.95;;;;;20.00;100345.00;;;;5028496;28;20192;-78
2021/10/05 08:48:06;;;;;;;1.58;1.00;;;;;20.10;100346.00;;;;5028404;28;20224;-78
2021/10/05 08:50:33;;;;;;;4.07;1.00;;;;;20.20;100340.00;;;;5027789;28;20658;-78
2021/10/05 08:53:00;;;;;;;1.00;0.73;;;;;20.30;100336.00;;;;5028447;28;20196;-78
2021/10/05 08:55:27;;;;;;;1.58;0.73;;;;;20.40;100325.00;;;;5028939;28;20219;-78
2021/10/05 08:57:55;;;;;;;1.15;0.75;;;;;20.40;100320.00;;;;5028166;28;20219;-78
2021/10/05 09:00:23;;;;;;;0.95;0.70;;;;;20.50;100314.00;;;;5028411;28;20204;-78
2021/10/05 09:02:53;;;;;;;2.08;1.13;;;;;20.60;100302.00;;;;5028586;28;20207;-78
2021/10/05 09:05:22;;;;;;;1.05;0.80;;;;;20.70;100301.00;;;;5028583;28;20662;-77
2021/10/05 09:07:51;;;;;;;2.78;0.98;;;;;20.80;100300.00;;;;5028676;28;20235;-78
2021/10/05 09:10:21;;;;;;;1.15;0.70;;;;;20.80;100292.00;;;;5028236;28;20235;-78
2021/10/05 09:12:49;;;;;;;1.05;0.75;;;;;20.90;100289.00;;;;5028493;28;20203;-78
2021/10/05 09:15:18;;;;;;;2.55;1.10;;;;;21.00;100293.00;;;;5030162;28;20211;-79
2021/10/05 09:17:51;;;;;;;1.75;0.93;;;;;21.10;100271.00;;;;5059171;28;20191;-77
2021/10/05 09:20:23;;;;;;;2.17;1.00;;;;;21.20;100290.00;;;;5048519;28;20200;-77
2021/10/05 09:23:03;;;;;;;1.80;1.00;;;;;21.30;100289.00;;;;5048354;28;20665;-78
2021/10/05 09:25:32;;;;;;;0.95;0.80;;;;;21.40;100278.00;;;;5048876;28;20207;-78
2021/10/05 09:28:01;;;;;;;1.25;0.75;;;;;21.50;100276.00;;;;5047884;28;20886;-77
2021/10/05 09:30:28;;;;;;;5.68;1.20;;;;;21.60;100268.00;;;;5048132;28;20638;-77
2021/10/05 09:33:01;;;;;;;1.52;1.05;;;;;21.70;100246.00;;;;5036061;28;20195;-77
2021/10/05 09:35:45;;;;;;;6.07;0.93;;;;;21.70;100245.00;;;;5048123;28;20203;-78
2021/10/05 09:38:14;;;;;;;3.70;0.88;;;;;21.90;100245.00;;;;5048014;28;20701;-77
2021/10/05 09:40:42;;;;;;;1.25;0.88;;;;;22.00;100239.00;;;;5048532;28;20207;-78
2021/10/05 09:43:21;;;;;;;1.50;0.70;;;;;22.00;100238.00;;;;5047530;28;20194;-77
2021/10/05 09:45:48;;;;;;;2.17;0.70;;;;;22.20;100231.00;;;;5048062;28;21116;-77
2021/10/05 09:48:16;;;;;;;2.00;0.73;;;;;22.30;100230.00;;;;5047213;28;20215;-78
2021/10/05 09:50:45;;;;;;;2.63;0.75;;;;;22.40;100240.00;;;;5027785;28;20200;-77
2021/10/05 09:53:16;;;;;;;4.40;1.08;;;;;22.50;100233.00;;;;5027674;28;20196;-77
2021/10/05 09:55:46;;;;;;;2.30;0.73;;;;;22.60;100242.00;;;;5028191;28;20558;-77
2021/10/05 09:58:15;;;;;;;0.70;0.57;;;;;22.70;100243.00;;;;5029753;28;20200;-78
2021/10/05 10:00:45;;;;;;;1.40;0.57;;;;;22.70;100243.00;;;;5033545;28;20239;-78
2021/10/05 10:03:13;;;;;;;2.13;0.57;;;;;22.80;100240.00;;;;5051131;28;20226;-77
2021/10/05 10:05:40;;;;;;;0.95;0.60;;;;;22.80;100241.00;;;;5047597;28;20262;-78
2021/10/05 10:08:09;;;;;;;2.00;0.95;;;;;22.80;100250.00;;;;5031253;28;20208;-78
2021/10/05 10:10:38;;;;;;;3.58;0.98;;;;;22.80;100245.00;;;;5031923;28;20204;-78
2021/10/05 10:13:08;;;;;;;2.83;0.93;;;;;22.90;100236.00;;;;5030959;28;20781;-77
2021/10/05 10:15:38;;;;;;;2.30;0.90;;;;;23.00;100243.00;;;;5031517;28;20204;-78
2021/10/05 10:18:07;;;;;;;4.95;1.15;;;;;23.10;100233.00;;;;5030714;28;20666;-78
2021/10/05 10:20:35;;;;;;;1.55;0.82;;;;;23.10;100237.00;;;;5031316;28;20590;-77
2021/10/05 10:23:03;;;;;;;1.70;1.10;;;;;23.20;100235.00;;;;5031148;28;20200;-77
2021/10/05 10:25:33;;;;;;;3.50;0.90;;;;;23.20;100222.00;;;;5031479;28;20211;-78
2021/10/05 10:28:13;;;;;;;1.83;0.63;;;;;23.20;100229.00;;;;5053040;28;20206;-77
2021/10/05 10:30:51;;;;;;;1.13;0.75;;;;;23.30;100237.00;;;;5050937;28;20195;-78
2021/10/05 10:33:20;;;;;;;4.57;0.80;;;;;23.40;100215.00;;;;5030728;28;20196;-78
2021/10/05 10:35:54;;;;;;;1.77;0.63;;;;;23.40;100220.00;;;;5030608;28;20204;-77
2021/10/05 10:38:27;;;;;;;4.15;1.17;;;;;23.50;100217.00;;;;5030969;28;20227;-78
2021/10/05 10:40:55;;;;;;;1.67;0.73;;;;;23.60;100208.00;;;;5030110;28;20208;-77
2021/10/05 10:43:25;;;;;;;2.05;0.90;;;;;23.60;100218.00;;;;5031399;28;20204;-78
2021/10/05 10:45:55;;;;;;;1.25;0.50;;;;;23.60;100201.00;;;;5030464;28;20574;-78
2021/10/05 10:48:27;;;;;;;3.08;0.80;;;;;23.60;100209.00;;;;5030414;28;20619;-77
2021/10/05 10:50:56;;;;;;;1.67;0.93;;;;;23.50;100207.00;;;;5030025;28;20207;-77
2021/10/05 10:53:34;;;;;;;1.67;0.80;;;;;23.40;100208.00;;;;5030557;28;20204;-77
2021/10/05 10:56:03;;;;;;;0.98;0.50;;;;;23.40;100193.00;;;;5030321;28;20208;-77
2021/10/05 10:58:41;;;;;;;2.55;0.85;;;;;23.30;100198.00;;;;5030610;28;20690;-77
2021/10/05 11:01:14;;;;;;;1.27;0.63;;;;;23.30;100198.00;;;;5030407;28;20204;-78
2021/10/05 11:03:41;;;;;;;3.70;0.60;;;;;23.20;100188.00;;;;5044751;28;20613;-77
2021/10/05 11:06:15;;;;;;;1.40;0.75;;;;;23.10;100185.00;;;;5038296;28;20208;-77
2021/10/05 11:08:53;;;;;;;1.15;0.47;;;;;23.00;100189.00;;;;5048251;28;20196;-77
2021/10/05 11:11:32;;;;;;;0.52;0.40;;;;;22.90;100176.00;;;;5043868;28;20223;-77
2021/10/05 11:14:02;;;;;;;0.98;0.25;;;;;23.00;100174.00;;;;5036381;28;20210;-78
2021/10/05 11:16:29;;;;;;;1.42;0.32;;;;;22.90;100177.00;;;;5036904;28;20228;-78
2021/10/05 11:19:08;;;;;;;2.13;0.50;;;;;22.80;100170.00;;;;5029809;28;20197;-77
2021/10/05 11:21:37;;;;;;;2.47;0.30;;;;;22.80;100166.00;;;;5034143;28;20207;-78
2021/10/05 11:24:05;;;;;;;1.25;0.40;;;;;22.80;100166.00;;;;5041805;28;20206;-77
2021/10/05 11:26:36;;;;;;;3.92;0.40;;;;;22.70;100165.00;;;;5050174;28;20677;-77
2021/10/05 11:29:04;;;;;;;3.72;0.63;;;;;22.70;100165.00;;;;5030310;28;21270;-77
2021/10/05 11:31:43;;;;;;;4.80;0.47;;;;;22.60;100149.00;;;;5037868;28;20732;-78
2021/10/05 11:34:10;;;;;;;0.73;0.43;;;;;22.70;100141.00;;;;5038384;28;20195;-77
2021/10/05 11:36:37;;;;;;;0.57;0.38;;;;;22.70;100144.00;;;;5058669;28;20198;-78
2021/10/05 11:39:07;;;;;;;2.00;0.40;;;;;22.60;100136.00;;;;5055263;28;20223;-77
2021/10/05 11:41:43;;;;;;;1.08;0.25;;;;;22.60;100129.00;;;;5049958;28;20222;-78
2021/10/05 11:44:15;;;;;;;2.97;0.80;;;;;22.60;100126.00;;;;5049387;28;20207;-77
2021/10/05 11:46:53;;;;;;;1.65;0.38;;;;;22.50;100119.00;;;;5049724;28;20237;-78
2021/10/05 11:49:21;;;;;;;0.65;0.45;;;;;22.60;100115.00;;;;5036187;28;20220;-77
2021/10/05 11:51:52;;;;;;;0.73;0.30;;;;;22.60;100109.00;;;;5048715;28;20219;-78
2021/10/05 11:54:24;;;;;;;1.05;0.60;;;;;22.60;100105.00;;;;5043071;28;20261;-78
2021/10/05 11:56:54;;;;;;;1.70;0.43;;;;;22.60;100102.00;;;;5041428;28;20200;-78
2021/10/05 11:59:27;;;;;;;1.05;0.30;;;;;22.50;100097.00;;;;5047123;28;20223;-77
2021/10/05 12:01:58;;;;;;;1.00;0.40;;;;;22.60;100093.00;;;;5037362;28;20238;-78
2021/10/05 12:04:27;;;;;;;1.00;0.40;;;;;22.50;100092.00;;;;5029703;28;20270;-77
2021/10/05 12:06:59;;;;;;;2.50;0.45;;;;;22.50;100082.00;;;;5032223;28;20215;-78
2021/10/05 12:09:26;;;;;;;0.65;0.20;;;;;22.50;100085.00;;;;5048961;28;20208;-77
2021/10/05 12:12:02;;;;;;;2.05;0.50;;;;;22.50;100083.00;;;;5048213;28;20688;-77
2021/10/05 12:14:36;;;;;;;0.63;0.30;;;;;22.50;100093.00;;;;5048382;28;20234;-78
2021/10/05 12:17:05;;;;;;;0.88;0.30;;;;;22.50;100089.00;;;;5048220;28;20222;-76